Time;durP1;ratioP1;P1;durP2;ratioP2;P2;SDS_P1;SDS_P2;PMS_P1;PMS_P2;Temp;Humidity;BMP_temperature;BMP_pressure;BME280_temperature;BME280_humidity;BME280_pressure;Samples;Min_cycle;Max_cycle;Signal;HPM_P1;HPM_P2
2021/09/12 00:02:20;;;;;;;16.20;12.75;;;;;;;23.89;49.81;99762.36;1744056;82;23337;-69
2021/09/12 00:04:47;;;;;;;15.28;13.68;;;;;;;23.88;49.82;99768.85;1747065;81;21069;-69
2021/09/12 00:07:15;;;;;;;15.63;13.83;;;;;;;23.88;49.84;99766.68;1748800;81;21011;-70
2021/09/12 00:09:41;;;;;;;14.10;12.65;;;;;;;23.88;49.87;99773.46;1747409;81;21097;-70
2021/09/12 00:12:08;;;;;;;15.28;13.22;;;;;;;23.86;49.87;99768.28;1745703;81;21049;-70
2021/09/12 00:14:34;;;;;;;14.10;12.60;;;;;;;23.86;49.90;99770.19;1745365;81;21095;-69
2021/09/12 00:17:02;;;;;;;15.48;13.38;;;;;;;23.85;50.01;99773.41;1733645;81;21590;-69
2021/09/12 00:19:29;;;;;;;15.23;13.48;;;;;;;23.84;50.01;99777.77;1708322;82;21089;-70
2021/09/12 00:21:57;;;;;;;16.07;13.15;;;;;;;23.84;50.01;99774.51;1680042;84;21542;-69
2021/09/12 00:24:25;;;;;;;15.35;13.58;;;;;;;23.82;50.01;99772.59;1675654;84;21050;-69
2021/09/12 00:26:53;;;;;;;15.78;13.15;;;;;;;23.82;50.03;99773.94;1742247;81;21552;-70
2021/09/12 00:29:20;;;;;;;14.07;12.63;;;;;;;23.82;49.97;99778.56;1740794;81;21033;-69
2021/09/12 00:31:48;;;;;;;15.78;13.68;;;;;;;23.81;50.03;99773.65;1745868;81;21488;-70
2021/09/12 00:34:15;;;;;;;15.13;13.45;;;;;;;23.80;50.03;99777.45;1745969;82;21084;-69
2021/09/12 00:36:41;;;;;;;15.28;13.10;;;;;;;23.79;50.00;99774.44;1719125;82;21078;-69
2021/09/12 00:39:09;;;;;;;14.93;13.38;;;;;;;23.80;49.99;99775.25;1678977;84;21136;-70
2021/09/12 00:41:40;;;;;;;14.58;12.73;;;;;;;23.78;50.03;99776.88;1689186;84;21017;-70
2021/09/12 00:46:27;;;;;;;14.98;13.38;;;;;;;23.83;50.07;99769.33;1834854;76;23268;-70
2021/09/12 00:48:55;;;;;;;14.55;13.05;;;;;;;23.74;50.09;99774.38;1802772;77;21977;-69
2021/09/12 00:51:22;;;;;;;17.07;13.90;;;;;;;23.75;50.06;99771.92;1819653;77;21091;-69
2021/09/12 00:53:49;;;;;;;15.70;14.05;;;;;;;23.74;50.13;99772.47;1809334;77;21588;-69
2021/09/12 00:56:16;;;;;;;15.58;14.03;;;;;;;23.74;50.15;99775.19;1796762;77;20970;-69
2021/09/12 00:58:43;;;;;;;15.75;14.00;;;;;;;23.73;50.16;99772.17;1823832;77;21004;-69
2021/09/12 01:01:10;;;;;;;15.38;13.85;;;;;;;23.74;50.15;99766.23;1824438;77;21016;-69
2021/09/12 01:03:37;;;;;;;16.85;13.45;;;;;;;23.73;50.17;99766.75;1800131;77;21354;-69
2021/09/12 01:06:04;;;;;;;16.73;14.35;;;;;;;23.71;50.25;99764.83;1821440;77;21582;-69
2021/09/12 01:08:32;;;;;;;15.05;13.53;;;;;;;23.70;50.24;99764.56;1791999;78;20980;-68
2021/09/12 01:10:59;;;;;;;14.68;13.18;;;;;;;23.69;50.29;99760.20;1823139;77;21014;-68
2021/09/12 01:13:26;;;;;;;14.90;13.32;;;;;;;23.70;50.33;99773.22;1824629;77;21064;-70
2021/09/12 01:15:55;;;;;;;15.43;13.85;;;;;;;23.69;50.30;99772.95;1791567;78;21142;-69
2021/09/12 01:18:24;;;;;;;14.80;13.30;;;;;;;23.68;50.30;99769.94;1815884;78;21060;-69
2021/09/12 01:20:52;;;;;;;16.85;13.98;;;;;;;23.67;50.32;99770.48;1809227;77;21060;-68
2021/09/12 01:23:22;;;;;;;14.60;13.10;;;;;;;23.67;50.33;99769.67;1829668;77;21064;-70
2021/09/12 01:25:56;;;;;;;15.63;13.50;;;;;;;23.66;50.33;99770.22;1818724;78;21162;-69
2021/09/12 01:28:22;;;;;;;14.73;13.40;;;;;;;23.66;50.36;99770.73;1812537;77;21735;-69
2021/09/12 01:30:52;;;;;;;15.05;13.45;;;;;;;23.66;50.35;99769.38;1779951;78;21037;-71
2021/09/12 01:33:19;;;;;;;16.05;14.35;;;;;;;23.64;50.36;99772.87;1816992;77;21047;-69
2021/09/12 01:35:45;;;;;;;15.43;13.93;;;;;;;23.64;50.34;99775.08;1822189;77;21057;-69
2021/09/12 01:38:13;;;;;;;15.95;14.18;;;;;;;23.63;50.35;99770.71;1823825;77;20986;-69
2021/09/12 01:40:40;;;;;;;15.58;13.93;;;;;;;23.62;50.33;99766.34;1812309;77;21108;-68
2021/09/12 01:43:07;;;;;;;15.08;13.58;;;;;;;23.62;50.25;99769.06;1813673;78;21073;-69
2021/09/12 01:45:35;;;;;;;15.53;13.83;;;;;;;23.62;50.28;99766.89;1818344;77;21878;-69
2021/09/12 01:48:04;;;;;;;15.32;13.68;;;;;;;23.60;50.25;99762.27;1796302;77;21003;-68
2021/09/12 01:50:31;;;;;;;14.70;13.30;;;;;;;23.59;50.22;99770.13;1824768;77;21010;-68
2021/09/12 01:52:58;;;;;;;14.58;13.20;;;;;;;23.59;50.19;99764.70;1725007;80;22115;-69
2021/09/12 01:55:24;;;;;;;15.70;13.43;;;;;;;23.57;50.17;99763.59;1805806;77;21050;-69
2021/09/12 01:57:51;;;;;;;15.55;13.95;;;;;;;23.58;50.17;99761.70;1811715;79;21034;-71
2021/09/12 02:00:20;;;;;;;14.85;13.25;;;;;;;23.56;50.13;99759.23;1812531;79;21021;-72
2021/09/12 02:02:48;;;;;;;14.25;12.85;;;;;;;23.56;50.13;99766.02;1812045;79;21540;-71
2021/09/12 02:05:16;;;;;;;16.50;14.05;;;;;;;23.54;50.09;99763.55;1810932;78;21127;-71
2021/09/12 02:07:43;;;;;;;15.95;14.30;;;;;;;23.54;50.05;99764.09;1811512;79;20989;-71
2021/09/12 02:10:10;;;;;;;15.95;14.38;;;;;;;23.53;50.04;99759.76;1811535;78;21037;-70
2021/09/12 02:12:39;;;;;;;16.15;14.47;;;;;;;23.53;50.03;99760.57;1811272;78;21002;-70
2021/09/12 02:15:07;;;;;;;16.45;14.75;;;;;;;23.53;50.00;99762.47;1812577;79;21506;-72
2021/09/12 02:17:33;;;;;;;16.93;15.23;;;;;;;23.52;50.00;99766.23;1812594;79;21501;-70
2021/09/12 02:20:02;;;;;;;17.25;15.63;;;;;;;23.50;49.96;99752.93;1810886;79;21006;-70
2021/09/12 02:22:29;;;;;;;17.45;15.30;;;;;;;23.50;49.96;99756.99;1792495;79;21025;-70
2021/09/12 02:24:58;;;;;;;16.82;15.03;;;;;;;23.48;49.90;99760.50;1811524;79;21058;-70
2021/09/12 02:27:26;;;;;;;16.70;15.05;;;;;;;23.48;49.87;99752.91;1810708;79;21080;-71
2021/09/12 02:29:57;;;;;;;17.17;15.38;;;;;;;23.47;49.84;99761.59;1811451;79;21006;-70
2021/09/12 02:32:25;;;;;;;16.37;14.70;;;;;;;23.47;49.85;99760.74;1812149;79;21009;-71
2021/09/12 02:34:52;;;;;;;16.73;14.40;;;;;;;23.46;49.76;99761.83;1811265;79;21505;-71
2021/09/12 02:37:19;;;;;;;15.98;14.43;;;;;;;23.44;49.77;99755.30;1810990;79;21018;-73
2021/09/12 02:39:46;;;;;;;17.30;15.50;;;;;;;23.44;49.79;99755.30;1811847;79;21091;-72
2021/09/12 02:42:14;;;;;;;18.42;15.50;;;;;;;23.44;49.74;99764.79;1811657;79;21115;-72
2021/09/12 02:44:40;;;;;;;16.42;14.73;;;;;;;23.43;49.77;99761.81;1812387;79;21042;-71
2021/09/12 02:47:07;;;;;;;16.57;14.78;;;;;;;23.42;49.75;99752.57;1818340;78;21530;-71
2021/09/12 02:49:34;;;;;;;17.20;15.40;;;;;;;23.41;49.76;99756.34;1813839;78;21634;-72
2021/09/12 02:52:01;;;;;;;17.35;15.32;;;;;;;23.39;49.77;99753.88;1798498;79;21513;-70
2021/09/12 02:54:28;;;;;;;19.15;16.23;;;;;;;23.39;49.78;99752.52;1809465;78;21078;-72
2021/09/12 02:56:54;;;;;;;17.55;15.55;;;;;;;23.38;49.79;99754.16;1816152;78;21548;-71
2021/09/12 02:59:24;;;;;;;17.85;15.93;;;;;;;23.37;49.81;99753.31;1813509;78;21048;-72
2021/09/12 03:01:51;;;;;;;18.82;16.95;;;;;;;23.35;49.82;99752.23;1813902;78;21028;-71
2021/09/12 03:04:21;;;;;;;18.42;15.58;;;;;;;23.34;49.83;99754.64;1818264;78;20997;-71
2021/09/12 03:06:52;;;;;;;17.98;16.17;;;;;;;23.33;49.89;99750.31;1818361;78;21203;-73
2021/09/12 03:09:19;;;;;;;17.05;15.32;;;;;;;23.32;49.90;99755.43;1818447;78;21034;-71
2021/09/12 03:11:46;;;;;;;17.32;15.32;;;;;;;23.31;49.96;99759.74;1817672;78;21044;-71
2021/09/12 03:14:16;;;;;;;17.50;15.70;;;;;;;23.30;49.95;99754.86;1813133;78;21033;-71
2021/09/12 03:16:45;;;;;;;17.12;15.45;;;;;;;23.30;49.97;99751.34;1835124;77;21048;-71
2021/09/12 03:19:15;;;;;;;17.95;16.12;;;;;;;23.30;50.02;99745.92;1816148;78;21158;-72
2021/09/12 03:21:42;;;;;;;17.20;15.48;;;;;;;23.29;50.07;99753.21;1816947;78;20978;-72
2021/09/12 03:24:12;;;;;;;20.52;16.32;;;;;;;23.29;50.08;99752.41;1800702;78;21012;-72
2021/09/12 03:26:41;;;;;;;18.65;16.65;;;;;;;23.28;50.09;99748.87;1818278;78;21361;-73
2021/09/12 03:29:08;;;;;;;18.20;16.42;;;;;;;23.28;50.14;99742.64;1816548;78;21536;-73
2021/09/12 03:31:35;;;;;;;19.82;16.40;;;;;;;23.28;50.15;99748.06;1816112;78;21131;-72
2021/09/12 03:34:02;;;;;;;18.07;16.30;;;;;;;23.27;50.18;99744.52;1814392;78;21013;-72
2021/09/12 03:36:28;;;;;;;18.62;16.82;;;;;;;23.28;50.24;99746.17;1817875;78;21536;-73
2021/09/12 03:38:57;;;;;;;19.55;17.40;;;;;;;23.27;50.33;99749.94;1818200;78;21651;-72
2021/09/12 03:41:24;;;;;;;19.07;17.12;;;;;;;23.26;50.37;99750.21;1818276;78;21075;-72
2021/09/12 03:43:52;;;;;;;18.37;16.42;;;;;;;23.25;50.47;99749.37;1818089;78;21536;-73
2021/09/12 03:46:19;;;;;;;19.25;17.20;;;;;;;23.24;50.51;99753.17;1822723;78;21571;-72
2021/09/12 03:48:45;;;;;;;19.23;17.37;;;;;;;23.25;50.56;99751.27;1826944;78;21544;-71
2021/09/12 03:51:12;;;;;;;18.70;16.80;;;;;;;23.24;50.61;99753.17;1819370;78;21061;-71
2021/09/12 03:53:42;;;;;;;18.48;16.50;;;;;;;23.23;50.64;99750.16;1821558;78;21036;-70
2021/09/12 03:56:11;;;;;;;20.10;18.07;;;;;;;23.23;50.75;99752.87;1818771;78;21165;-72
2021/09/12 03:58:38;;;;;;;18.65;16.85;;;;;;;23.22;50.79;99749.89;1815862;78;21469;-72
2021/09/12 04:01:04;;;;;;;21.02;17.80;;;;;;;23.22;50.82;99748.53;1824918;78;21670;-72
2021/09/12 04:03:31;;;;;;;21.62;17.82;;;;;;;23.23;50.87;99752.05;1823255;78;21016;-73
2021/09/12 04:05:58;;;;;;;19.82;17.77;;;;;;;23.22;50.88;99753.95;1814502;78;21685;-71
2021/09/12 04:08:25;;;;;;;24.23;17.87;;;;;;;23.23;50.93;99752.87;1809277;78;21149;-73
2021/09/12 04:10:53;;;;;;;18.40;16.50;;;;;;;23.24;50.94;99751.81;1826311;78;21099;-71
2021/09/12 04:13:20;;;;;;;19.62;16.67;;;;;;;23.24;50.94;99751.81;1826670;78;21096;-71
2021/09/12 04:15:48;;;;;;;19.75;17.75;;;;;;;23.25;50.99;99749.91;1823523;78;21040;-71
2021/09/12 04:18:15;;;;;;;19.20;17.23;;;;;;;23.24;50.99;99753.17;1818826;78;21048;-73
2021/09/12 04:20:42;;;;;;;19.85;16.87;;;;;;;23.26;51.02;99750.21;1821472;78;21833;-72
2021/09/12 04:23:09;;;;;;;21.00;17.00;;;;;;;23.26;51.08;99753.73;1826694;78;21037;-71
2021/09/12 04:25:35;;;;;;;18.73;16.67;;;;;;;23.28;51.03;99749.42;1825325;78;21504;-71
2021/09/12 04:28:02;;;;;;;20.32;18.23;;;;;;;23.29;51.02;99753.21;1826072;78;20996;-71
2021/09/12 04:30:28;;;;;;;19.02;16.87;;;;;;;23.30;51.02;99746.73;1820459;78;21032;-72
2021/09/12 04:32:54;;;;;;;19.42;16.07;;;;;;;23.32;51.02;99749.20;1816386;78;21247;-71
2021/09/12 04:35:21;;;;;;;20.62;16.97;;;;;;;23.32;51.05;99743.78;1818216;78;21052;-71
2021/09/12 04:37:48;;;;;;;19.07;15.35;;;;;;;23.33;51.02;99744.05;1823927;78;21024;-72
2021/09/12 04:40:14;;;;;;;19.17;16.10;;;;;;;23.35;51.03;99746.81;1819112;78;21516;-73
2021/09/12 04:42:40;;;;;;;21.85;16.45;;;;;;;;;;1821225;78;21079;-72
2021/09/12 04:45:08;;;;;;;18.55;16.05;;;;;;;23.39;51.09;99744.39;1821704;78;21061;-70
2021/09/12 04:47:35;;;;;;;17.15;15.45;;;;;;;23.41;51.07;99740.91;1810567;77;21558;-70
2021/09/12 04:50:03;;;;;;;18.90;16.82;;;;;;;23.43;51.05;99743.34;1811344;79;21532;-71
2021/09/12 04:52:30;;;;;;;16.57;15.05;;;;;;;23.44;51.08;99740.94;1812364;79;21080;-72
2021/09/12 04:54:57;;;;;;;17.73;16.02;;;;;;;23.44;51.07;99730.91;1788359;79;20986;-72
2021/09/12 04:57:24;;;;;;;17.92;15.43;;;;;;;23.47;51.09;99733.63;1810514;78;21090;-72
2021/09/12 04:59:50;;;;;;;17.90;16.00;;;;;;;23.48;51.07;99731.22;1812580;79;21025;-71
2021/09/12 05:02:17;;;;;;;16.95;15.18;;;;;;;23.50;51.00;99731.78;1813148;78;21032;-73
2021/09/12 05:04:43;;;;;;;17.02;14.93;;;;;;;23.52;50.94;99730.45;1810249;79;21008;-72
2021/09/12 05:07:10;;;;;;;16.73;15.00;;;;;;;23.54;50.93;99730.20;1810998;79;21053;-72
2021/09/12 05:09:37;;;;;;;16.80;14.98;;;;;;;23.56;50.90;99726.70;1812538;79;21195;-72
2021/09/12 05:12:06;;;;;;;17.35;15.55;;;;;;;23.58;50.90;99725.91;1810758;79;21429;-72
2021/09/12 05:14:35;;;;;;;15.80;14.20;;;;;;;23.60;50.80;99722.94;1812526;79;21069;-71
2021/09/12 05:17:02;;;;;;;16.50;14.83;;;;;;;23.62;50.78;99723.51;1806722;79;21115;-70
2021/09/12 05:19:29;;;;;;;17.12;14.33;;;;;;;23.65;50.69;99723.02;1796381;79;21041;-69
2021/09/12 05:21:56;;;;;;;15.40;13.90;;;;;;;23.65;50.76;99715.69;1810188;79;21126;-70
2021/09/12 05:24:22;;;;;;;14.53;13.10;;;;;;;23.68;50.62;99722.48;1795119;79;21505;-70
2021/09/12 05:26:49;;;;;;;15.68;13.70;;;;;;;23.70;50.64;99721.69;1811111;79;20993;-70
2021/09/12 05:29:16;;;;;;;15.23;13.78;;;;;;;23.71;50.59;99718.73;1811829;79;21188;-71
2021/09/12 05:31:45;;;;;;;15.05;13.50;;;;;;;23.70;50.51;99717.11;1811915;79;21010;-71
2021/09/12 05:34:11;;;;;;;14.78;13.22;;;;;;;23.74;50.46;99718.23;1808055;79;21199;-70
2021/09/12 05:36:38;;;;;;;15.50;13.98;;;;;;;23.75;50.35;99718.49;1799480;79;21013;-70
2021/09/12 05:39:04;;;;;;;17.80;13.75;;;;;;;23.78;50.29;99714.50;1810579;79;21043;-74
2021/09/12 05:41:31;;;;;;;16.60;13.65;;;;;;;23.81;50.25;99721.30;1811602;79;21046;-73
2021/09/12 05:43:58;;;;;;;14.30;12.90;;;;;;;23.82;50.15;99719.69;1812622;79;21041;-71
2021/09/12 05:46:25;;;;;;;15.13;12.78;;;;;;;23.84;50.09;99714.02;1811215;79;21861;-71
2021/09/12 05:48:51;;;;;;;13.70;12.05;;;;;;;23.86;50.02;99712.68;1812651;79;21001;-70
2021/09/12 05:51:19;;;;;;;14.98;13.53;;;;;;;23.88;49.92;99713.78;1811045;78;21042;-72
2021/09/12 05:53:45;;;;;;;14.10;12.80;;;;;;;23.91;49.94;99714.61;1812639;79;20970;-72
2021/09/12 05:56:13;;;;;;;14.33;12.98;;;;;;;23.92;49.85;99710.84;1771500;80;21542;-71
2021/09/12 05:58:40;;;;;;;14.90;13.00;;;;;;;23.94;49.82;99721.70;1769556;80;21128;-72
2021/09/12 06:01:07;;;;;;;14.95;13.45;;;;;;;23.97;49.79;99718.19;1774084;80;21018;-72
2021/09/12 06:03:33;;;;;;;15.32;12.75;;;;;;;23.98;49.80;99712.52;1741826;82;21054;-71
2021/09/12 06:06:00;;;;;;;14.38;12.98;;;;;;;24.01;49.69;99716.59;1750281;80;21092;-72
2021/09/12 06:08:27;;;;;;;14.28;12.88;;;;;;;24.03;49.71;99713.09;1746982;80;21054;-71
2021/09/12 06:10:53;;;;;;;15.90;12.98;;;;;;;24.06;49.60;99717.47;1755399;80;21737;-72
2021/09/12 06:13:20;;;;;;;14.20;12.70;;;;;;;24.09;49.44;99721.03;1770834;80;21030;-71
2021/09/12 06:15:46;;;;;;;14.03;12.43;;;;;;;24.10;49.37;99718.58;1740110;80;21073;-72
2021/09/12 06:18:14;;;;;;;15.05;12.13;;;;;;;24.14;49.31;99727.87;1768188;80;21024;-71
2021/09/12 06:20:42;;;;;;;15.60;14.10;;;;;;;24.16;49.34;99724.88;1763910;80;21050;-70
2021/09/12 06:23:09;;;;;;;15.60;14.07;;;;;;;24.19;49.31;99728.44;1767940;80;21776;-72
2021/09/12 06:25:36;;;;;;;14.60;13.20;;;;;;;24.22;49.17;99724.38;1743091;82;21027;-71
2021/09/12 06:28:04;;;;;;;14.28;13.00;;;;;;;24.24;49.19;99727.66;1747688;82;21077;-71
2021/09/12 06:30:31;;;;;;;16.50;13.55;;;;;;;24.26;49.18;99727.70;1743928;81;21038;-71
2021/09/12 06:32:57;;;;;;;15.70;13.40;;;;;;;24.29;49.10;99731.23;1726260;82;21019;-70
2021/09/12 06:35:24;;;;;;;14.65;12.75;;;;;;;24.32;49.00;99728.56;1736889;81;21903;-71
2021/09/12 06:37:51;;;;;;;14.70;13.05;;;;;;;24.35;48.89;99732.09;1739906;82;21026;-71
2021/09/12 06:40:18;;;;;;;15.78;14.18;;;;;;;24.37;48.87;99732.66;1748171;82;21036;-72
2021/09/12 06:42:46;;;;;;;15.70;13.70;;;;;;;24.39;48.83;99731.84;1725904;82;21025;-71
2021/09/12 06:45:12;;;;;;;16.65;14.93;;;;;;;24.40;48.79;99732.14;1744261;82;21209;-71
2021/09/12 06:47:40;;;;;;;14.40;13.00;;;;;;;24.43;48.70;99732.16;1742652;82;21038;-72
2021/09/12 06:50:09;;;;;;;26.80;13.65;;;;;;;24.44;48.69;99733.26;1742120;81;21538;-73
2021/09/12 06:52:35;;;;;;;13.80;12.40;;;;;;;24.46;48.63;99731.65;1727325;81;21082;-72
2021/09/12 06:55:01;;;;;;;16.12;14.43;;;;;;;24.48;48.63;99730.30;1760860;81;20998;-73
2021/09/12 06:57:28;;;;;;;15.60;14.00;;;;;;;24.49;48.61;99730.59;1757237;80;21099;-72
2021/09/12 06:59:55;;;;;;;15.50;14.00;;;;;;;24.52;48.56;99734.70;1742054;81;21272;-72
2021/09/12 07:02:22;;;;;;;19.50;13.13;;;;;;;24.55;48.48;99732.00;1732259;81;21094;-72
2021/09/12 07:04:49;;;;;;;15.28;13.75;;;;;;;24.57;48.38;99736.63;1737787;82;21058;-71
2021/09/12 07:07:17;;;;;;;13.88;12.58;;;;;;;24.59;48.32;99735.83;1803205;79;21533;-71
2021/09/12 07:09:43;;;;;;;14.03;12.63;;;;;;;24.60;48.31;99739.64;1822665;77;21537;-71
2021/09/12 07:12:10;;;;;;;14.15;12.70;;;;;;;24.63;48.24;99736.97;1812828;77;21317;-71
2021/09/12 07:14:37;;;;;;;13.88;12.60;;;;;;;24.65;48.20;99740.23;1805659;77;21031;-72
2021/09/12 07:17:06;;;;;;;15.10;13.55;;;;;;;24.67;48.20;99744.87;1794133;79;21003;-72
2021/09/12 07:19:34;;;;;;;13.83;12.40;;;;;;;24.70;48.19;99740.25;1805091;77;21081;-71
2021/09/12 07:22:01;;;;;;;14.63;13.13;;;;;;;24.71;48.24;99742.72;1810879;79;21556;-74
2021/09/12 07:24:29;;;;;;;14.90;13.50;;;;;;;24.73;48.27;99741.91;1812209;77;22388;-73
2021/09/12 07:26:56;;;;;;;18.00;13.53;;;;;;;24.78;48.21;99744.38;1806730;77;21003;-74
2021/09/12 07:29:24;;;;;;;13.20;11.85;;;;;;;24.80;48.08;99745.77;1799148;77;21550;-72
2021/09/12 07:31:52;;;;;;;14.00;12.78;;;;;;;24.82;48.05;99734.62;1795875;77;21131;-74
2021/09/12 07:34:18;;;;;;;13.58;12.37;;;;;;;24.84;48.01;99741.45;1801226;77;21097;-74
2021/09/12 07:36:45;;;;;;;15.10;13.28;;;;;;;24.86;48.08;99735.20;1814556;77;21522;-74
2021/09/12 07:39:12;;;;;;;15.30;13.80;;;;;;;24.89;48.09;99737.38;1804075;79;21069;-72
2021/09/12 07:41:41;;;;;;;16.97;13.72;;;;;;;24.91;48.02;99739.29;1811075;79;21006;-69
2021/09/12 07:44:08;;;;;;;14.75;13.25;;;;;;;24.93;48.02;99734.41;1812398;79;21088;-70
2021/09/12 07:46:35;;;;;;;14.40;12.00;;;;;;;24.96;48.01;99735.80;1808181;79;20995;-68
2021/09/12 07:49:03;;;;;;;13.48;12.18;;;;;;;24.99;48.03;99739.88;1806457;79;21562;-70
2021/09/12 07:51:29;;;;;;;14.07;12.58;;;;;;;25.01;47.92;99737.72;1797427;79;20970;-70
2021/09/12 07:53:56;;;;;;;14.23;11.53;;;;;;;25.04;47.76;99737.20;1807710;79;20997;-70
2021/09/12 07:56:22;;;;;;;15.18;12.98;;;;;;;25.07;47.70;99740.73;1802962;79;21006;-71
2021/09/12 07:58:49;;;;;;;13.05;11.70;;;;;;;25.08;47.74;99737.76;1805614;79;20971;-74
2021/09/12 08:01:16;;;;;;;15.10;12.63;;;;;;;25.11;47.74;99744.55;1807882;79;22132;-71
2021/09/12 08:03:43;;;;;;;14.28;12.85;;;;;;;25.14;47.62;99739.97;1808608;78;21042;-69
2021/09/12 08:06:10;;;;;;;14.23;12.73;;;;;;;25.17;47.39;99742.69;1791263;78;21085;-70
2021/09/12 08:08:36;;;;;;;13.95;12.40;;;;;;;25.19;47.27;99741.36;1774744;79;21528;-69
2021/09/12 08:11:03;;;;;;;14.58;13.22;;;;;;;25.20;47.36;99737.54;1803628;78;21119;-69
2021/09/12 08:13:31;;;;;;;13.90;12.50;;;;;;;25.24;47.40;99740.03;1806091;78;21604;-66
2021/09/12 08:15:59;;;;;;;12.82;11.45;;;;;;;25.25;47.59;99738.97;1808213;78;21018;-69
2021/09/12 08:18:26;;;;;;;15.05;12.33;;;;;;;25.28;47.71;99735.73;1808786;78;21045;-77
2021/09/12 08:20:54;;;;;;;17.48;12.78;;;;;;;25.33;47.45;99736.83;1804278;78;21509;-76
2021/09/12 08:23:22;;;;;;;14.10;12.70;;;;;;;25.33;47.25;99732.75;1805453;78;21037;-80
2021/09/12 08:25:50;;;;;;;13.28;11.85;;;;;;;25.34;47.08;99737.89;1816698;78;21103;-82
2021/09/12 08:28:18;;;;;;;15.43;11.93;;;;;;;25.37;46.96;99740.09;1808612;79;21467;-80
2021/09/12 08:30:47;;;;;;;14.35;12.85;;;;;;;25.40;46.55;99734.14;1808393;78;21033;-71
2021/09/12 08:33:15;;;;;;;15.25;13.60;;;;;;;25.42;47.06;99728.41;1808483;79;21015;-69
2021/09/12 08:35:42;;;;;;;18.23;13.10;;;;;;;25.45;47.35;99730.61;1807846;78;21095;-70
2021/09/12 08:38:11;;;;;;;12.80;11.53;;;;;;;25.48;46.79;99721.92;1807775;78;21117;-67
2021/09/12 08:40:37;;;;;;;14.95;13.03;;;;;;;25.51;47.13;99719.47;1805843;79;21540;-71
2021/09/12 08:43:06;;;;;;;13.25;11.95;;;;;;;25.54;46.99;99735.81;1806687;79;21026;-68
2021/09/12 08:45:34;;;;;;;14.55;12.93;;;;;;;25.58;46.81;99734.73;1805961;79;21006;-73
2021/09/12 08:48:01;;;;;;;13.30;11.93;;;;;;;25.59;46.61;99731.73;1791807;78;21045;-71
2021/09/12 08:50:27;;;;;;;13.48;12.15;;;;;;;25.63;46.03;99734.21;1817485;78;22189;-70
2021/09/12 08:52:54;;;;;;;12.47;11.28;;;;;;;25.65;45.89;99730.68;1810180;78;21028;-69
2021/09/12 08:55:20;;;;;;;14.80;13.32;;;;;;;25.68;45.49;99728.77;1810819;78;21026;-71
2021/09/12 08:57:50;;;;;;;15.08;13.35;;;;;;;25.73;45.18;99732.58;1793648;78;21048;-70
2021/09/12 09:00:21;;;;;;;13.55;11.40;;;;;;;25.76;44.74;99732.86;1790561;78;21488;-69
2021/09/12 09:02:46;;;;;;;14.07;11.08;;;;;;;25.80;44.91;99731.79;1743350;80;21111;-68
2021/09/12 09:05:13;;;;;;;16.23;12.07;;;;;;;25.84;45.05;99722.80;1753400;80;21022;-70
2021/09/12 09:07:40;;;;;;;11.78;10.58;;;;;;;25.87;45.06;99727.72;1754722;80;21087;-70
2021/09/12 09:10:19;;;;;;;11.78;10.58;;;;;;;25.93;45.06;99722.33;1745649;80;21072;-69
2021/09/12 09:12:47;;;;;;;12.75;11.45;;;;;;;25.96;45.07;99725.33;1735691;81;21558;-69
2021/09/12 09:15:22;;;;;;;13.38;10.58;;;;;;;26.00;44.49;99723.70;1731996;82;21123;-69
2021/09/12 09:17:50;;;;;;;12.55;11.25;;;;;;;26.05;44.67;99719.59;1804276;78;21053;-71
2021/09/12 09:20:26;;;;;;;12.80;11.48;;;;;;;26.11;44.67;99716.89;1811680;78;21088;-71
2021/09/12 09:22:57;;;;;;;16.73;11.55;;;;;;;26.14;44.68;99717.16;1816386;78;20983;-70
2021/09/12 09:25:26;;;;;;;15.32;12.00;;;;;;;26.18;44.76;99717.45;1812110;79;21566;-71
2021/09/12 09:28:08;;;;;;;12.50;11.28;;;;;;;26.22;44.24;99719.34;1819994;78;21104;-70
2021/09/12 09:30:57;;;;;;;;;;;;;;;26.26;43.80;99716.34;1747172;80;21109;-73
2021/09/12 09:33:27;;;;;;;14.43;10.50;;;;;;;26.32;43.81;99713.08;1750012;81;20429;-73
2021/09/12 09:36:02;;;;;;;15.83;11.35;;;;;;;26.35;44.42;99710.34;1724925;81;21136;-71
2021/09/12 09:38:35;;;;;;;12.50;11.00;;;;;;;26.38;44.19;99706.53;1760669;80;21072;-70
2021/09/12 09:41:17;;;;;;;14.18;12.05;;;;;;;26.43;43.90;99709.81;1744931;80;21233;-69
2021/09/12 09:43:48;;;;;;;12.95;11.53;;;;;;;26.46;43.58;99707.36;1752022;80;21037;-72
2021/09/12 09:46:35;;;;;;;12.80;11.50;;;;;;;26.51;43.73;99707.08;1754263;80;21045;-70
2021/09/12 09:49:28;;;;;;;15.13;12.45;;;;;;;26.56;43.84;99707.89;1727535;82;21683;-70
2021/09/12 09:52:01;;;;;;;14.07;12.03;;;;;;;26.63;43.95;99706.27;1741561;80;21069;-68
2021/09/12 09:54:31;;;;;;;13.15;11.48;;;;;;;26.67;43.87;99710.06;1741926;81;21495;-70
2021/09/12 09:56:58;;;;;;;12.55;11.08;;;;;;;26.73;43.66;99707.59;1725259;80;21073;-68
2021/09/12 09:59:26;;;;;;;13.18;10.80;;;;;;;26.81;43.70;99704.33;1736280;81;21022;-67
2021/09/12 10:01:54;;;;;;;14.65;10.60;;;;;;;26.84;43.49;99699.66;1731418;81;21739;-68
2021/09/12 10:04:26;;;;;;;11.22;10.23;;;;;;;26.90;43.18;99700.47;1733416;81;21088;-69
2021/09/12 10:06:52;;;;;;;12.90;11.60;;;;;;;26.96;42.61;99703.99;1734767;82;21103;-70
2021/09/12 10:09:19;;;;;;;11.93;10.70;;;;;;;27.02;42.64;99697.42;1755447;81;21000;-69
2021/09/12 10:12:00;;;;;;;12.07;10.70;;;;;;;27.07;42.29;99697.42;1737154;81;21032;-70
2021/09/12 10:14:50;;;;;;;10.85;9.70;;;;;;;27.11;41.93;99701.77;1749226;81;21023;-69
2021/09/12 10:17:30;;;;;;;11.88;10.55;;;;;;;27.13;41.21;99696.30;1741326;80;21108;-68
2021/09/12 10:20:14;;;;;;;11.20;10.00;;;;;;;27.16;40.96;99697.11;1767221;78;21878;-67
2021/09/12 10:23:04;;;;;;;14.47;10.82;;;;;;;27.18;40.49;99698.20;1780269;78;21042;-66
2021/09/12 10:25:55;;;;;;;12.15;11.05;;;;;;;27.22;40.67;99693.82;1774031;78;21251;-67
2021/09/12 10:28:32;;;;;;;14.35;10.28;;;;;;;27.26;40.55;99690.27;1769144;79;21038;-67
2021/09/12 10:31:00;;;;;;;14.13;10.32;;;;;;;27.27;40.48;99696.53;1785950;80;21494;-66
2021/09/12 10:33:28;;;;;;;12.20;10.32;;;;;;;27.31;40.52;99681.80;1790077;78;21114;-67
2021/09/12 10:36:03;;;;;;;14.47;9.83;;;;;;;27.35;40.56;99678.77;1775677;78;21046;-68
2021/09/12 10:38:39;;;;;;;11.15;10.15;;;;;;;27.38;40.09;99681.75;1796011;78;21135;-67
2021/09/12 10:41:10;;;;;;;11.53;10.08;;;;;;;27.42;40.24;99677.36;1778108;78;21025;-67
2021/09/12 10:43:41;;;;;;;10.68;9.63;;;;;;;27.49;40.09;99681.69;1762594;78;21028;-68
2021/09/12 10:46:13;;;;;;;11.18;9.85;;;;;;;27.52;39.68;99679.22;1786592;79;21281;-66
2021/09/12 10:48:44;;;;;;;;;;;;;;;27.56;39.62;99677.55;1799129;77;21016;-70
2021/09/12 10:51:19;;;;;;;13.85;10.78;;;;;;;27.58;39.43;99674.02;1821471;77;20186;-67
2021/09/12 10:54:01;;;;;;;12.15;9.85;;;;;;;27.59;39.70;99678.36;1812829;78;21041;-68
2021/09/12 10:56:30;;;;;;;10.43;9.43;;;;;;;27.65;39.38;99667.67;1768118;80;21500;-67
2021/09/12 10:59:05;;;;;;;11.57;10.45;;;;;;;27.68;39.08;99666.31;1772244;80;21384;-66
2021/09/12 11:01:46;;;;;;;12.40;9.53;;;;;;;27.72;38.89;99664.64;1779336;80;20987;-65
2021/09/12 11:04:15;;;;;;;11.25;9.98;;;;;;;27.78;38.89;99660.77;1779098;80;21021;-65
2021/09/12 11:06:44;;;;;;;10.98;9.70;;;;;;;27.84;38.93;99656.90;1750838;80;21287;-66
2021/09/12 11:09:22;;;;;;;10.70;9.75;;;;;;;27.90;38.76;99662.36;1727053;82;21089;-66
2021/09/12 11:11:55;;;;;;;10.82;9.70;;;;;;;27.93;38.87;99661.77;1747421;82;21180;-64
2021/09/12 11:14:22;;;;;;;11.35;10.00;;;;;;;27.98;38.59;99658.45;1764834;81;21045;-64
2021/09/12 11:16:49;;;;;;;11.68;10.45;;;;;;;28.03;38.24;99663.88;1743548;81;21089;-64
2021/09/12 11:19:15;;;;;;;10.53;9.48;;;;;;;28.11;38.40;99659.72;1765458;79;21506;-63
2021/09/12 11:21:49;;;;;;;11.00;9.93;;;;;;;28.14;38.45;99659.13;1750438;80;21069;-63
2021/09/12 11:24:22;;;;;;;12.25;9.95;;;;;;;28.21;38.43;99657.45;1784257;79;21087;-67
2021/09/12 11:27:01;;;;;;;11.95;10.03;;;;;;;28.26;38.42;99647.02;1789434;78;20986;-68
2021/09/12 11:29:38;;;;;;;10.75;9.68;;;;;;;28.28;40.17;99652.47;1789495;78;21505;-65